createdAt,value
2018-06-04T00:01:23.646Z,88.25
2018-06-04T00:03:54.686Z,86.25
2018-06-04T00:06:25.874Z,80.77
2018-06-04T00:08:57.157Z,84.25
2018-06-04T00:11:28.301Z,91.82
2018-06-04T00:13:59.704Z,85.10
2018-06-04T00:16:40.223Z,83.35
2018-06-04T00:19:11.665Z,85.40
2018-06-04T00:21:42.831Z,85.92
2018-06-04T00:24:14.206Z,84.37
2018-06-04T00:26:45.328Z,79.15
2018-06-04T00:29:16.388Z,82.78
2018-06-04T00:31:47.644Z,85.80
2018-06-04T00:34:18.769Z,89.55
2018-06-04T00:36:49.818Z,89.50
2018-06-04T00:39:20.993Z,85.62
2018-06-04T00:41:52.089Z,86.10
2018-06-04T00:44:23.199Z,89.92
2018-06-04T00:46:54.476Z,87.42
2018-06-04T00:49:25.516Z,84.13
2018-06-04T00:51:56.540Z,85.72
2018-06-04T00:54:27.749Z,83.65
2018-06-04T00:56:58.845Z,87.30
2018-06-04T00:59:29.983Z,81.22
2018-06-04T01:02:01.173Z,84.60
2018-06-04T01:04:33.727Z,78.95
2018-06-04T01:07:04.848Z,90.47
2018-06-04T01:09:36.228Z,84.62
2018-06-04T01:12:12.697Z,84.83
2018-06-04T01:14:44.226Z,93.80
2018-06-04T01:17:15.269Z,83.65
2018-06-04T01:19:46.408Z,79.35
2018-06-04T01:22:17.467Z,83.22
2018-06-04T01:24:48.590Z,80.57
2018-06-04T01:27:19.606Z,79.45
2018-06-04T01:29:50.796Z,83.55
2018-06-04T01:32:21.995Z,83.45
2018-06-04T01:34:53.476Z,81.15
2018-06-04T01:37:24.516Z,83.50
2018-06-04T01:39:55.861Z,83.25
2018-06-04T01:42:26.939Z,86.75
2018-06-04T01:44:58.168Z,80.03
2018-06-04T01:47:29.273Z,81.37
2018-06-04T01:50:00.485Z,84.95
2018-06-04T01:52:32.784Z,86.53
2018-06-04T01:55:03.976Z,84.85
2018-06-04T01:57:35.237Z,86.12
2018-06-04T02:00:30.202Z,87.08
2018-06-04T02:03:01.285Z,91.53
2018-06-04T02:05:32.578Z,80.67
2018-06-04T02:08:03.672Z,82.35
2018-06-04T02:10:34.778Z,89.10
2018-06-04T02:13:06.005Z,83.42
2018-06-04T02:15:37.125Z,77.10
2018-06-04T02:18:08.504Z,83.75
2018-06-04T02:20:40.171Z,87.10
2018-06-04T02:23:11.320Z,85.67
2018-06-04T02:25:42.413Z,83.95
2018-06-04T02:28:13.544Z,74.70
2018-06-04T02:30:44.954Z,86.78
2018-06-04T02:33:25.357Z,92.33
2018-06-04T02:35:56.374Z,88.05
2018-06-04T02:38:27.397Z,87.85
2018-06-04T02:40:58.486Z,86.82
2018-06-04T02:43:29.688Z,84.05
2018-06-04T02:46:03.229Z,90.47
2018-06-04T02:48:34.469Z,82.92
2018-06-04T02:51:05.620Z,85.32
2018-06-04T02:53:36.712Z,92.60
2018-06-04T02:56:08.165Z,88.05
2018-06-04T02:58:39.352Z,82.62
2018-06-04T03:01:29.499Z,83.22
2018-06-04T03:04:00.590Z,85.85
2018-06-04T03:06:31.710Z,107.67
2018-06-04T03:09:02.921Z,83.90
2018-06-04T03:11:34.117Z,85.32
2018-06-04T03:14:06.136Z,80.45
2018-06-04T03:16:37.496Z,83.07
2018-06-04T03:19:08.808Z,81.35
2018-06-04T03:21:39.996Z,82.90
2018-06-04T03:24:11.021Z,87.20
2018-06-04T03:26:42.469Z,84.22
2018-06-04T03:29:13.516Z,84.22
2018-06-04T03:31:44.473Z,81.37
2018-06-04T03:34:15.576Z,87.45
2018-06-04T03:36:46.620Z,87.35
2018-06-04T03:39:17.780Z,79.25
2018-06-04T03:41:49.203Z,84.70
2018-06-04T03:44:20.180Z,85.62
2018-06-04T03:46:51.123Z,81.02
2018-06-04T03:49:27.100Z,84.00
2018-06-04T03:51:58.270Z,86.32
2018-06-04T03:54:29.354Z,82.25
2018-06-04T03:57:00.439Z,83.47
2018-06-04T03:59:31.547Z,86.82
2018-06-04T04:02:02.728Z,84.97
2018-06-04T04:04:33.761Z,81.53
2018-06-04T04:08:07.744Z,77.82
2018-06-04T04:10:38.885Z,76.37
2018-06-04T04:13:10.259Z,75.92
2018-06-04T04:15:41.193Z,78.00
2018-06-04T04:18:12.315Z,82.90
2018-06-04T04:20:43.539Z,80.53
2018-06-04T04:23:14.726Z,85.28
2018-06-04T04:25:45.750Z,85.62
2018-06-04T04:28:16.697Z,84.05
2018-06-04T04:30:47.873Z,84.30
2018-06-04T04:33:19.174Z,88.20
2018-06-04T04:35:50.032Z,82.60
2018-06-04T04:38:21.220Z,81.32
2018-06-04T04:40:52.241Z,78.00
2018-06-04T04:43:23.262Z,85.62
2018-06-04T04:45:54.623Z,84.58
2018-06-04T04:48:25.936Z,89.60
2018-06-04T04:50:56.966Z,87.15
2018-06-04T04:53:28.077Z,88.75
2018-06-04T04:55:59.173Z,89.10
2018-06-04T04:58:30.291Z,82.75
2018-06-04T05:01:01.393Z,88.15
2018-06-04T05:03:32.516Z,86.90
2018-06-04T05:06:03.648Z,89.20
2018-06-04T05:08:35.571Z,81.28
2018-06-04T05:11:06.619Z,84.35
2018-06-04T05:13:37.672Z,82.20
2018-06-04T05:16:08.863Z,87.02
2018-06-04T05:18:40.000Z,86.17
2018-06-04T05:21:11.032Z,89.72
2018-06-04T05:23:48.813Z,86.78
2018-06-04T05:26:19.755Z,89.45
2018-06-04T05:28:51.328Z,86.82
2018-06-04T05:31:22.450Z,89.77
2018-06-04T05:33:53.694Z,88.82
2018-06-04T05:36:24.772Z,87.42
2018-06-04T05:38:56.093Z,89.55
2018-06-04T05:41:27.161Z,92.22
2018-06-04T05:43:58.288Z,90.47
2018-06-04T05:46:38.328Z,89.60
2018-06-04T05:49:09.463Z,85.85
2018-06-04T05:51:40.584Z,92.53
2018-06-04T05:54:12.061Z,88.37
2018-06-04T05:56:42.894Z,90.15
2018-06-04T05:59:13.777Z,88.60
2018-06-04T06:01:44.591Z,86.80
2018-06-04T06:04:15.727Z,90.85
2018-06-04T06:06:46.548Z,89.90
2018-06-04T06:09:17.656Z,81.05
2018-06-04T06:11:54.305Z,85.22
2018-06-04T06:14:25.538Z,83.95
2018-06-04T06:16:56.640Z,83.47
2018-06-04T06:19:28.098Z,93.70
2018-06-04T06:21:59.349Z,85.60
2018-06-04T06:24:45.316Z,89.20
2018-06-04T06:27:16.488Z,89.83
2018-06-04T06:29:47.668Z,87.35
2018-06-04T06:32:18.777Z,91.53
2018-06-04T06:34:50.129Z,90.28
2018-06-04T06:37:21.220Z,90.45
2018-06-04T06:39:52.885Z,101.72
2018-06-04T06:42:24.253Z,95.20
2018-06-04T06:44:56.108Z,89.03
2018-06-04T06:47:27.162Z,92.53
2018-06-04T06:49:58.287Z,88.97
2018-06-04T06:52:29.232Z,91.20
2018-06-04T06:55:00.496Z,96.12
2018-06-04T06:57:31.692Z,89.30
2018-06-04T07:00:03.118Z,91.05
2018-06-04T07:02:45.254Z,97.82
2018-06-04T07:05:16.635Z,101.15
2018-06-04T07:07:47.865Z,98.72
2018-06-04T07:10:23.092Z,93.12
2018-06-04T07:12:54.509Z,98.52
2018-06-04T07:15:25.630Z,101.00
2018-06-04T07:17:56.908Z,101.58
2018-06-04T07:20:27.921Z,100.62
2018-06-04T07:22:59.140Z,102.40
2018-06-04T07:25:30.324Z,95.40
2018-06-04T07:28:01.457Z,98.30
2018-06-04T07:30:32.867Z,95.55
2018-06-04T07:33:04.057Z,88.03
2018-06-04T07:35:35.100Z,94.25
2018-06-04T07:38:06.336Z,99.37
2018-06-04T07:40:37.599Z,90.30
2018-06-04T07:43:10.152Z,93.10
2018-06-04T07:45:41.656Z,92.45
2018-06-04T07:48:12.844Z,102.40
2018-06-04T17:48:52.152Z,95.35
2018-06-04T17:51:24.898Z,93.62
2018-06-04T17:54:10.082Z,91.30
2018-06-04T17:56:41.339Z,95.32
2018-06-04T17:59:13.815Z,91.82
2018-06-04T18:02:01.866Z,89.15
2018-06-04T18:04:34.428Z,92.95
2018-06-04T18:07:05.624Z,87.90
2018-06-04T18:09:37.470Z,94.92
2018-06-04T18:12:11.474Z,98.37
2018-06-04T18:14:43.674Z,95.67
2018-06-04T18:17:22.470Z,97.72
2018-06-04T18:19:54.965Z,98.27
2018-06-04T18:22:30.858Z,98.70
2018-06-04T18:25:03.176Z,99.85
2018-06-04T18:27:36.347Z,103.67
2018-06-04T18:30:08.899Z,98.70
2018-06-04T18:32:40.450Z,101.12
2018-06-04T18:35:13.408Z,98.60
2018-06-04T18:37:44.591Z,104.00
2018-06-04T18:40:15.832Z,106.30
2018-06-04T18:43:04.382Z,98.10
2018-06-04T18:45:35.843Z,96.20
2018-06-04T18:48:06.732Z,94.17
2018-06-04T18:50:37.975Z,87.47
2018-06-04T18:53:09.348Z,104.80
2018-06-04T18:55:40.534Z,92.70
2018-06-04T18:58:11.772Z,88.47
2018-06-04T19:00:43.404Z,87.92
2018-06-04T19:03:14.570Z,90.03
2018-06-04T19:05:45.821Z,92.50
2018-06-04T19:08:18.493Z,97.42
2018-06-04T19:10:49.914Z,90.77
2018-06-04T19:13:31.191Z,95.70
2018-06-04T19:16:04.221Z,95.15
2018-06-04T19:18:36.048Z,96.30
2018-06-04T19:21:07.199Z,91.55
2018-06-04T19:23:38.236Z,102.55
2018-06-04T19:26:10.867Z,90.70
2018-06-04T19:28:41.972Z,97.25
2018-06-04T19:31:13.277Z,94.67
2018-06-04T19:33:44.265Z,89.87
2018-06-04T19:36:15.320Z,92.97
2018-06-04T19:38:46.417Z,88.58
2018-06-04T19:41:17.615Z,97.82
2018-06-04T19:43:48.864Z,93.55
2018-06-04T19:46:25.535Z,90.07
2018-06-04T19:48:57.180Z,88.45
2018-06-04T19:51:29.421Z,114.28
2018-06-04T19:54:02.308Z,114.88
2018-06-04T19:56:35.755Z,94.95
2018-06-04T19:59:07.103Z,95.92
2018-06-04T20:01:38.146Z,90.12
2018-06-04T20:04:12.024Z,101.22
2018-06-04T20:06:43.812Z,88.92
2018-06-04T20:09:14.948Z,87.05
2018-06-04T20:11:46.461Z,90.92
2018-06-04T20:14:17.553Z,87.60
2018-06-04T20:16:48.697Z,91.10
2018-06-04T20:19:39.550Z,92.50
2018-06-04T20:22:10.874Z,99.45
2018-06-04T20:24:42.304Z,89.77
2018-06-04T20:27:13.845Z,95.32
2018-06-04T20:29:45.606Z,93.58
2018-06-04T20:32:17.610Z,90.97
2018-06-04T20:34:48.571Z,94.28
2018-06-04T20:37:20.855Z,90.70
2018-06-04T20:39:52.376Z,97.72
2018-06-04T20:42:23.760Z,99.00
2018-06-04T20:44:55.071Z,91.97
2018-06-04T20:47:26.285Z,89.03
2018-06-04T20:49:57.492Z,94.32
2018-06-04T20:52:28.598Z,94.03
2018-06-04T20:54:59.847Z,94.55
2018-06-04T20:57:31.374Z,83.62
2018-06-04T21:00:03.840Z,92.35
2018-06-04T21:02:36.199Z,94.37
2018-06-04T21:05:07.860Z,93.58
2018-06-04T21:07:40.295Z,89.95
2018-06-04T21:10:11.381Z,88.82
2018-06-04T21:12:42.408Z,92.42
2018-06-04T21:15:13.436Z,91.45
2018-06-04T21:17:44.699Z,97.17
2018-06-04T21:20:15.741Z,100.50
2018-06-04T21:22:47.038Z,94.97
2018-06-04T21:25:18.184Z,90.15
2018-06-04T21:27:49.657Z,95.40
2018-06-04T21:30:20.445Z,87.90
2018-06-04T21:32:51.406Z,87.62
2018-06-04T21:35:22.452Z,87.42
2018-06-04T21:37:53.634Z,89.40
2018-06-04T21:40:24.850Z,90.15
2018-06-04T21:42:56.221Z,89.00
2018-06-04T21:45:27.435Z,95.17
2018-06-04T21:48:02.092Z,90.62
2018-06-04T21:50:33.532Z,84.35
2018-06-04T21:53:04.616Z,82.22
2018-06-04T21:55:35.833Z,85.80
2018-06-04T21:58:07.611Z,91.12
2018-06-04T22:00:56.190Z,87.40
2018-06-04T22:03:29.768Z,92.82
2018-06-04T22:06:01.181Z,92.08
2018-06-04T22:08:32.578Z,82.15
2018-06-04T22:11:06.321Z,83.05
2018-06-04T22:13:37.800Z,80.55
2018-06-04T22:16:15.326Z,84.87
2018-06-04T22:18:46.754Z,88.25
2018-06-04T22:21:17.985Z,82.97
2018-06-04T22:23:49.092Z,86.00
2018-06-04T22:26:20.291Z,96.32
2018-06-04T22:28:51.815Z,93.12
2018-06-04T22:31:23.001Z,90.75
2018-06-04T22:33:54.230Z,91.05
2018-06-04T22:36:25.387Z,88.52
2018-06-04T22:38:56.650Z,93.05
2018-06-04T22:41:29.713Z,98.20
2018-06-04T22:44:03.256Z,91.75
2018-06-04T22:46:34.844Z,86.82
2018-06-04T22:49:06.879Z,87.02
2018-06-04T22:51:37.892Z,91.57
2018-06-04T22:54:08.945Z,88.65
2018-06-04T22:56:40.041Z,95.17
2018-06-04T22:59:11.166Z,94.67
2018-06-04T23:01:42.373Z,89.58
2018-06-04T23:04:27.469Z,89.87
2018-06-04T23:06:58.676Z,88.80
2018-06-04T23:09:29.796Z,88.00
2018-06-04T23:12:01.020Z,87.33
2018-06-04T23:14:32.196Z,91.70
2018-06-04T23:17:15.596Z,86.87
2018-06-04T23:19:46.909Z,92.30
2018-06-04T23:22:18.126Z,84.95
2018-06-04T23:24:49.410Z,90.25
2018-06-04T23:27:20.560Z,94.37
2018-06-04T23:29:52.147Z,95.30
2018-06-04T23:32:23.164Z,92.10
2018-06-04T23:34:54.656Z,86.10
2018-06-04T23:37:25.657Z,86.28
2018-06-04T23:39:56.687Z,94.55
2018-06-04T23:42:27.894Z,92.17
2018-06-04T23:44:59.144Z,95.30
2018-06-04T23:47:30.447Z,91.65
2018-06-04T23:50:01.516Z,91.72
2018-06-04T23:52:36.668Z,87.35
2018-06-04T23:55:08.008Z,85.83
2018-06-04T23:57:39.306Z,93.22
